createdAt,value
2017-09-10T00:00:42.597Z,99221.42
2017-09-10T00:01:48.534Z,99214.09
2017-09-10T00:02:54.718Z,99210.63
2017-09-10T00:04:00.956Z,99214.17
2017-09-10T00:05:07.057Z,99211.86
2017-09-10T00:06:13.370Z,99209.99
2017-09-10T00:07:19.584Z,99214.05
2017-09-10T00:08:25.522Z,99217.41
2017-09-10T00:09:31.440Z,99217.28
2017-09-10T00:10:37.643Z,99218.53
2017-09-10T00:11:43.919Z,99219.50
2017-09-10T00:12:50.159Z,99215.06
2017-09-10T00:13:56.431Z,99212.93
2017-09-10T00:15:02.426Z,99219.37
2017-09-10T00:16:08.781Z,99219.19
2017-09-10T00:17:15.048Z,99223.28
2017-09-10T00:18:21.512Z,99217.66
2017-09-10T00:19:27.713Z,99216.02
2017-09-10T00:20:33.959Z,99222.56
2017-09-10T00:21:40.133Z,99229.29
2017-09-10T00:22:46.358Z,99226.66
2017-09-10T00:23:52.610Z,99233.78
2017-09-10T00:24:58.634Z,99229.55
2017-09-10T00:26:04.743Z,99230.69
2017-09-10T00:27:10.819Z,99235.02
2017-09-10T00:28:17.862Z,99236.75
2017-09-10T00:29:24.543Z,99238.20
2017-09-10T00:30:30.401Z,99243.91
2017-09-10T00:31:36.450Z,99234.72
2017-09-10T00:32:42.751Z,99237.31
2017-09-10T00:33:49.023Z,99232.27
2017-09-10T00:34:56.088Z,99230.19
2017-09-10T00:36:03.382Z,99234.78
2017-09-10T00:37:09.658Z,99239.45
2017-09-10T00:38:16.084Z,99248.22
2017-09-10T00:39:22.459Z,99242.35
2017-09-10T00:40:28.849Z,99241.52
2017-09-10T00:41:35.001Z,99241.38
2017-09-10T00:42:41.338Z,99233.62
2017-09-10T00:43:47.360Z,99238.92
2017-09-10T00:44:53.505Z,99242.74
2017-09-10T00:45:59.627Z,99236.84
2017-09-10T00:47:05.838Z,99236.55
2017-09-10T00:48:11.981Z,99245.15
2017-09-10T00:49:18.101Z,99239.48
2017-09-10T00:50:23.485Z,99242.77
2017-09-10T00:51:28.953Z,99245.31
2017-09-10T00:52:34.273Z,99248.66
2017-09-10T00:53:40.567Z,99243.30
2017-09-10T00:54:46.062Z,99248.13
2017-09-10T00:55:52.361Z,99250.25
2017-09-10T00:56:58.477Z,99250.64
2017-09-10T00:58:04.906Z,99247.68
2017-09-10T00:59:11.026Z,99250.23
2017-09-10T01:00:17.152Z,99249.48
2017-09-10T01:01:23.084Z,99252.21
2017-09-10T01:02:28.944Z,99254.52
2017-09-10T01:03:35.984Z,99256.64
2017-09-10T01:04:41.829Z,99254.84
2017-09-10T01:05:47.919Z,99261.17
2017-09-10T01:06:54.037Z,99259.50
2017-09-10T01:08:01.211Z,99251.94
2017-09-10T01:09:07.005Z,99250.95
2017-09-10T01:10:12.580Z,99250.23
2017-09-10T01:11:18.705Z,99259.13
2017-09-10T01:12:24.448Z,99257.14
2017-09-10T01:13:30.302Z,99255.20
2017-09-10T01:14:36.419Z,99262.28
2017-09-10T01:15:42.501Z,99257.55
2017-09-10T01:16:49.313Z,99255.74
2017-09-10T01:17:55.390Z,99248.49
2017-09-10T01:19:01.656Z,99258.09
2017-09-10T01:20:07.196Z,99255.45
2017-09-10T01:21:12.813Z,99256.78
2017-09-10T01:22:18.190Z,99255.88
2017-09-10T01:23:24.550Z,99255.50
2017-09-10T01:24:29.917Z,99271.03
2017-09-10T01:25:36.112Z,99267.07
2017-09-10T01:26:41.535Z,99262.46
2017-09-10T01:27:47.501Z,99262.70
2017-09-10T01:28:53.818Z,99264.86
2017-09-10T01:29:59.877Z,99268.17
2017-09-10T01:31:06.010Z,99267.17
2017-09-10T01:32:12.275Z,99274.39
2017-09-10T01:33:18.533Z,99274.48
2017-09-10T01:34:24.777Z,99275.05
2017-09-10T01:35:31.759Z,99276.13
2017-09-10T01:36:41.795Z,99281.12
2017-09-10T01:37:47.991Z,99282.81
2017-09-10T01:38:54.267Z,99280.64
2017-09-10T01:40:00.415Z,99287.56
2017-09-10T01:41:06.527Z,99286.03
2017-09-10T01:42:12.731Z,99288.22
2017-09-10T01:43:18.831Z,99293.03
2017-09-10T01:44:25.860Z,99289.28
2017-09-10T01:45:32.028Z,99295.58
2017-09-10T01:46:38.164Z,99288.97
2017-09-10T01:47:44.251Z,99292.80
2017-09-10T01:48:50.314Z,99292.14
2017-09-10T01:49:56.448Z,99292.65
2017-09-10T01:51:02.680Z,99292.92
2017-09-10T01:52:08.833Z,99293.57
2017-09-10T01:53:14.766Z,99293.30
2017-09-10T01:54:21.224Z,99293.20
2017-09-10T01:55:27.216Z,99296.26
2017-09-10T01:56:33.408Z,99298.05
2017-09-10T01:57:39.486Z,99297.95
2017-09-10T01:58:45.741Z,99297.77
2017-09-10T01:59:51.561Z,99300.87
2017-09-10T02:00:57.133Z,99301.82
2017-09-10T02:02:03.289Z,99298.10
2017-09-10T02:03:09.490Z,99298.34
2017-09-10T02:04:15.491Z,99293.45
2017-09-10T02:05:21.526Z,99295.16
2017-09-10T02:06:27.785Z,99294.77
2017-09-10T02:07:33.863Z,99296.41
2017-09-10T02:08:40.183Z,99293.05
2017-09-10T02:09:46.288Z,99295.73
2017-09-10T02:10:52.592Z,99300.06
2017-09-10T02:11:58.528Z,99297.25
2017-09-10T02:13:04.784Z,99299.22
2017-09-10T02:14:11.188Z,99299.27
2017-09-10T02:15:18.196Z,99300.73
2017-09-10T02:16:25.226Z,99309.34
2017-09-10T02:17:31.334Z,99307.39
2017-09-10T02:18:37.527Z,99303.20
2017-09-10T02:19:43.755Z,99308.76
2017-09-10T02:20:49.862Z,99307.39
2017-09-10T02:21:56.069Z,99303.55
2017-09-10T02:23:03.152Z,99306.63
2017-09-10T02:24:09.293Z,99308.59
2017-09-10T02:25:15.358Z,99310.78
2017-09-10T02:26:21.509Z,99319.05
2017-09-10T02:27:27.844Z,99312.22
2017-09-10T02:28:34.161Z,99312.84
2017-09-10T02:29:40.296Z,99315.08
2017-09-10T02:30:46.470Z,99315.92
2017-09-10T02:31:52.725Z,99309.66
2017-09-10T02:32:59.055Z,99309.36
2017-09-10T02:34:06.218Z,99311.42
2017-09-10T02:35:12.433Z,99309.26
2017-09-10T02:36:18.493Z,99310.43
2017-09-10T02:37:24.757Z,99304.91
2017-09-10T02:38:30.958Z,99307.02
2017-09-10T02:39:37.211Z,99310.14
2017-09-10T02:40:43.450Z,99309.87
2017-09-10T02:41:49.679Z,99305.18
2017-09-10T02:42:55.789Z,99310.06
2017-09-10T02:44:02.038Z,99304.67
2017-09-10T02:45:08.182Z,99310.98
2017-09-10T02:46:14.384Z,99305.34
2017-09-10T02:47:21.035Z,99310.81
2017-09-10T02:48:28.423Z,99304.08
2017-09-10T02:49:34.656Z,99310.45
2017-09-10T02:50:40.843Z,99310.67
2017-09-10T02:51:47.380Z,99307.00
2017-09-10T02:52:53.569Z,99306.55
2017-09-10T02:53:59.775Z,99303.67
2017-09-10T02:55:06.192Z,99304.84
2017-09-10T02:56:12.625Z,99303.83
2017-09-10T02:57:18.824Z,99301.20
2017-09-10T02:58:25.267Z,99305.41
2017-09-10T02:59:32.776Z,99301.16
2017-09-10T03:00:39.218Z,99298.27
2017-09-10T03:01:45.618Z,99307.74
2017-09-10T03:02:51.875Z,99296.70
2017-09-10T03:03:58.127Z,99298.22
2017-09-10T03:05:04.370Z,99306.44
2017-09-10T03:06:10.726Z,99302.67
2017-09-10T03:07:17.095Z,99300.98
2017-09-10T03:08:23.350Z,99304.17
2017-09-10T03:09:29.726Z,99306.29
2017-09-10T03:10:37.047Z,99308.83
2017-09-10T03:11:43.202Z,99304.43
2017-09-10T03:12:49.324Z,99304.48
2017-09-10T03:13:56.511Z,99307.30
2017-09-10T03:15:03.658Z,99304.95
2017-09-10T03:16:09.782Z,99306.97
2017-09-10T03:17:16.177Z,99308.84
2017-09-10T03:18:22.383Z,99314.33
2017-09-10T03:19:28.638Z,99311.30
2017-09-10T03:20:34.789Z,99319.27
2017-09-10T03:21:41.062Z,99315.50
2017-09-10T03:22:47.216Z,99316.99
2017-09-10T03:23:53.425Z,99315.08
2017-09-10T03:24:59.792Z,99316.33
2017-09-10T03:26:06.164Z,99311.97
2017-09-10T03:27:12.360Z,99313.76
2017-09-10T03:28:18.735Z,99315.27
2017-09-10T03:29:25.299Z,99309.36
2017-09-10T03:30:31.767Z,99313.95
2017-09-10T03:31:38.164Z,99311.64
2017-09-10T03:32:44.311Z,99314.41
2017-09-10T03:33:50.808Z,99316.46
2017-09-10T03:34:57.544Z,99318.56
2017-09-10T03:36:03.830Z,99319.43
2017-09-10T03:37:10.337Z,99322.33
2017-09-10T03:38:16.732Z,99314.23
2017-09-10T03:39:23.468Z,99324.01
2017-09-10T03:40:31.014Z,99323.59
2017-09-10T03:41:37.224Z,99330.30
2017-09-10T03:42:43.377Z,99322.95
2017-09-10T03:43:50.071Z,99329.70
2017-09-10T03:44:56.077Z,99325.45
2017-09-10T03:46:02.333Z,99326.20
2017-09-10T03:47:08.513Z,99323.33
2017-09-10T03:48:15.504Z,99330.12
2017-09-10T03:49:21.583Z,99330.86
2017-09-10T03:50:27.584Z,99335.74
2017-09-10T03:51:33.742Z,99332.06
2017-09-10T03:52:39.985Z,99332.61
2017-09-10T03:53:46.126Z,99328.80
2017-09-10T03:54:53.423Z,99324.97
2017-09-10T03:56:00.724Z,99327.95
2017-09-10T03:57:08.010Z,99336.60
2017-09-10T03:58:15.320Z,99334.59
2017-09-10T03:59:22.045Z,99338.08
2017-09-10T04:00:28.696Z,99341.91
2017-09-10T04:01:35.773Z,99345.13
2017-09-10T04:02:43.700Z,99342.12
2017-09-10T04:03:51.241Z,99350.48
2017-09-10T04:04:58.467Z,99338.64
2017-09-10T04:06:05.704Z,99343.48
2017-09-10T04:07:13.711Z,99344.87
2017-09-10T04:08:21.217Z,99343.39
2017-09-10T04:09:28.775Z,99335.84
2017-09-10T04:10:36.155Z,99341.41
2017-09-10T04:11:43.195Z,99344.77
2017-09-10T04:12:52.264Z,99341.51
2017-09-10T04:14:00.155Z,99343.93
2017-09-10T04:15:07.202Z,99337.73
2017-09-10T04:16:14.730Z,99342.36
2017-09-10T04:17:21.386Z,99347.45
2017-09-10T04:18:29.696Z,99351.71
2017-09-10T04:19:37.079Z,99351.71
2017-09-10T04:20:44.246Z,99353.45
2017-09-10T04:21:51.293Z,99346.70
2017-09-10T04:22:58.727Z,99353.92
2017-09-10T04:24:07.210Z,99359.30
2017-09-10T04:25:16.238Z,99361.77
2017-09-10T04:26:25.195Z,99355.87
2017-09-10T04:27:33.614Z,99365.38
2017-09-10T04:28:41.515Z,99362.07
2017-09-10T04:29:49.833Z,99366.02
2017-09-10T04:30:58.289Z,99365.59
2017-09-10T04:32:06.185Z,99368.52
2017-09-10T04:33:14.260Z,99375.05
2017-09-10T04:34:21.943Z,99378.14
2017-09-10T04:35:30.342Z,99382.64
2017-09-10T04:36:39.192Z,99386.34
2017-09-10T04:37:47.296Z,99382.73
2017-09-10T04:38:54.727Z,99394.62
2017-09-10T04:40:02.242Z,99389.92
2017-09-10T04:41:11.268Z,99393.69
2017-09-10T04:42:18.800Z,99402.38
2017-09-10T04:43:28.119Z,99402.68
2017-09-10T04:44:36.234Z,99400.86
2017-09-10T04:45:44.683Z,99407.91
2017-09-10T04:46:52.274Z,99410.62
2017-09-10T04:48:00.326Z,99408.92
2017-09-10T04:49:09.505Z,99405.70
2017-09-10T04:50:17.624Z,99411.39
2017-09-10T04:51:26.184Z,99409.61
2017-09-10T04:52:35.287Z,99411.34
2017-09-10T04:53:44.551Z,99412.02
2017-09-10T04:54:52.281Z,99412.23
2017-09-10T04:56:00.292Z,99411.22
2017-09-10T04:57:09.177Z,99416.69
2017-09-10T04:58:18.309Z,99410.96
2017-09-10T04:59:28.308Z,99418.22
2017-09-10T05:00:35.982Z,99419.14
2017-09-10T05:01:46.274Z,99422.41
2017-09-10T05:02:55.544Z,99421.84
2017-09-10T05:04:05.270Z,99420.25
2017-09-10T05:05:14.209Z,99423.56
2017-09-10T05:06:23.339Z,99423.02
2017-09-10T05:07:32.222Z,99422.97
2017-09-10T05:08:41.199Z,99423.86
2017-09-10T05:09:49.395Z,99422.77
2017-09-10T05:10:58.234Z,99424.59
2017-09-10T05:12:07.151Z,99427.55
2017-09-10T05:13:15.164Z,99426.12
2017-09-10T05:14:24.156Z,99422.59
2017-09-10T05:15:34.225Z,99424.50
2017-09-10T05:16:44.356Z,99422.86
2017-09-10T05:17:55.422Z,99421.54
2017-09-10T05:19:05.173Z,99417.67
2017-09-10T05:20:15.144Z,99427.40
2017-09-10T05:21:24.204Z,99427.73
2017-09-10T05:22:38.168Z,99430.50
2017-09-10T05:24:08.321Z,99427.83
2017-09-10T05:25:22.014Z,99431.27
2017-09-10T05:26:32.179Z,99431.35
2017-09-10T05:27:40.301Z,99436.28
2017-09-10T05:28:50.152Z,99442.97
2017-09-10T05:30:00.751Z,99437.09
2017-09-10T05:31:09.067Z,99443.49
2017-09-10T05:32:17.084Z,99441.14
2017-09-10T05:33:26.128Z,99444.81
2017-09-10T05:34:34.126Z,99442.50
2017-09-10T05:35:43.410Z,99451.70
2017-09-10T05:36:52.505Z,99447.91
2017-09-10T05:38:00.225Z,99448.51
2017-09-10T05:39:10.990Z,99446.43
2017-09-10T05:40:22.470Z,99451.38
2017-09-10T05:41:30.028Z,99448.59
2017-09-10T05:44:16.218Z,99449.95
2017-09-10T05:45:26.016Z,99451.65
2017-09-10T05:46:36.255Z,99458.69
2017-09-10T05:47:45.259Z,99455.83
2017-09-10T05:48:56.294Z,99460.88
2017-09-10T05:50:06.189Z,99465.27
2017-09-10T05:51:18.145Z,99459.77
2017-09-10T05:52:29.238Z,99463.48
2017-09-10T05:53:40.206Z,99462.13
2017-09-10T05:54:50.182Z,99465.81
2017-09-10T05:56:01.213Z,99462.33
2017-09-10T05:57:11.210Z,99465.48
2017-09-10T05:58:22.251Z,99469.72
2017-09-10T05:59:32.142Z,99459.73
2017-09-10T06:00:43.194Z,99468.72
2017-09-10T06:01:55.185Z,99465.22
2017-09-10T06:03:06.226Z,99465.94
2017-09-10T06:04:16.163Z,99463.42
2017-09-10T06:05:25.630Z,99463.66
2017-09-10T06:06:35.137Z,99468.00
2017-09-10T06:07:45.920Z,99466.48
2017-09-10T06:08:58.180Z,99472.16
2017-09-10T06:10:08.186Z,99479.20
2017-09-10T06:11:18.116Z,99479.82
2017-09-10T06:12:29.124Z,99480.69
2017-09-10T06:13:39.084Z,99479.48
2017-09-10T06:14:50.166Z,99482.68
2017-09-10T06:16:15.422Z,99482.56
2017-09-10T06:19:16.490Z,99480.99
2017-09-10T06:20:26.292Z,99481.45
2017-09-10T06:21:36.089Z,99480.81
2017-09-10T06:22:49.037Z,99477.70
2017-09-10T06:27:02.101Z,99470.38
2017-09-10T06:28:12.323Z,99471.56
2017-09-10T06:29:21.586Z,99477.88
2017-09-10T06:30:32.134Z,99477.41
2017-09-10T06:31:42.139Z,99475.22
2017-09-10T06:32:52.152Z,99474.70
2017-09-10T06:34:02.163Z,99476.83
2017-09-10T06:35:11.388Z,99474.28
2017-09-10T06:36:21.062Z,99478.11
2017-09-10T06:37:29.921Z,99479.38
2017-09-10T06:38:39.016Z,99482.23
2017-09-10T06:39:48.079Z,99482.19
2017-09-10T06:40:56.895Z,99477.83
2017-09-10T06:42:05.670Z,99477.05
2017-09-10T06:43:14.003Z,99475.06
2017-09-10T06:44:22.023Z,99470.80
2017-09-10T06:45:30.982Z,99473.97
2017-09-10T06:46:39.009Z,99468.91
2017-09-10T06:47:48.124Z,99462.08
2017-09-10T06:48:56.936Z,99466.52
2017-09-10T06:50:05.354Z,99468.05
2017-09-10T06:51:12.548Z,99466.06
2017-09-10T06:52:20.918Z,99470.86
2017-09-10T06:53:29.019Z,99471.42
2017-09-10T06:54:36.925Z,99466.44
2017-09-10T06:55:44.910Z,99476.14
2017-09-10T06:56:53.868Z,99470.08
2017-09-10T06:58:02.073Z,99473.14
2017-09-10T06:59:10.347Z,99476.30
2017-09-10T07:00:18.125Z,99470.71
2017-09-10T07:01:26.905Z,99479.84
2017-09-10T07:02:34.971Z,99476.14
2017-09-10T07:03:42.938Z,99480.98
2017-09-10T07:04:51.868Z,99479.81
2017-09-10T07:06:00.684Z,99479.84
2017-09-10T07:07:07.879Z,99481.41
2017-09-10T07:08:16.035Z,99490.02
2017-09-10T07:09:23.898Z,99487.41
2017-09-10T07:10:33.964Z,99488.16
2017-09-10T07:11:41.933Z,99491.98
2017-09-10T07:12:49.968Z,99495.19
2017-09-10T07:13:56.975Z,99500.09
2017-09-10T07:15:04.906Z,99505.36
2017-09-10T07:16:13.968Z,99504.98
2017-09-10T07:17:23.538Z,99503.77
2017-09-10T07:18:31.325Z,99507.13
2017-09-10T07:19:39.348Z,99503.05
2017-09-10T07:20:46.863Z,99500.62
2017-09-10T07:21:54.917Z,99498.73
2017-09-10T07:23:02.814Z,99506.16
2017-09-10T07:24:09.792Z,99507.38
2017-09-10T07:25:17.922Z,99510.14
2017-09-10T07:26:25.704Z,99505.52
2017-09-10T07:27:32.887Z,99506.02
2017-09-10T07:28:40.817Z,99507.41
2017-09-10T07:29:48.505Z,99507.75
2017-09-10T07:30:55.238Z,99503.78
2017-09-10T07:32:03.562Z,99499.98
2017-09-10T07:33:11.897Z,99497.64
2017-09-10T07:34:19.759Z,99500.47
2017-09-10T07:35:26.749Z,99495.84
2017-09-10T07:36:34.843Z,99500.55
2017-09-10T07:37:42.883Z,99492.51
2017-09-10T07:38:50.265Z,99494.47
2017-09-10T07:39:56.820Z,99502.64
2017-09-10T07:41:05.298Z,99498.29
2017-09-10T07:42:12.365Z,99497.64
2017-09-10T07:43:19.763Z,99500.67
2017-09-10T07:44:26.775Z,99496.22
2017-09-10T07:45:35.830Z,99496.33
2017-09-10T07:46:44.863Z,99504.44
2017-09-10T07:47:53.845Z,99507.78
2017-09-10T07:49:01.733Z,99507.14
2017-09-10T07:50:10.853Z,99503.86
2017-09-10T07:51:18.803Z,99495.78
2017-09-10T07:52:28.958Z,99506.56
2017-09-10T07:53:36.888Z,99500.66
2017-09-10T07:54:46.928Z,99494.89
2017-09-10T07:55:57.857Z,99490.91
2017-09-10T07:57:06.884Z,99491.95
2017-09-10T07:58:20.426Z,99490.12
2017-09-10T07:59:33.024Z,99491.91
2017-09-10T08:00:42.804Z,99489.58
2017-09-10T08:01:52.918Z,99493.83
2017-09-10T08:03:03.066Z,99491.37
2017-09-10T08:04:13.002Z,99494.59
2017-09-10T08:05:23.913Z,99488.91
2017-09-10T08:06:35.034Z,99501.92
2017-09-10T08:07:44.943Z,99498.35
2017-09-10T08:08:57.893Z,99493.12
2017-09-10T08:10:08.988Z,99496.97
2017-09-10T08:11:17.966Z,99492.37
2017-09-10T08:12:30.996Z,99480.83
2017-09-10T08:13:43.067Z,99481.77
2017-09-10T08:14:52.940Z,99491.13
2017-09-10T08:16:01.796Z,99493.11
2017-09-10T08:17:12.812Z,99493.92
2017-09-10T08:18:23.912Z,99491.08
2017-09-10T08:19:35.912Z,99494.77
2017-09-10T08:22:59.793Z,99502.06
2017-09-10T08:24:11.890Z,99488.47
2017-09-10T08:27:22.046Z,99511.69
2017-09-10T08:28:30.781Z,99511.78
2017-09-10T08:29:39.900Z,99502.06
2017-09-10T08:30:48.825Z,99505.73
2017-09-10T08:32:10.929Z,99502.33
2017-09-10T08:33:21.933Z,99505.86
2017-09-10T08:34:32.885Z,99510.77
2017-09-10T08:35:43.852Z,99508.80
2017-09-10T08:38:40.536Z,99526.27
2017-09-10T08:40:32.651Z,99528.65
2017-09-10T08:42:00.937Z,99526.42
2017-09-10T08:43:12.784Z,99524.95
2017-09-10T08:44:23.765Z,99533.58
2017-09-10T08:47:07.765Z,99527.23
2017-09-10T08:50:09.618Z,99526.00
2017-09-10T08:51:20.964Z,99532.63
2017-09-10T08:52:36.842Z,99528.42
2017-09-10T08:54:11.661Z,99529.53
2017-09-10T08:55:39.506Z,99536.95
2017-09-10T08:56:46.423Z,99529.67
2017-09-10T08:57:54.798Z,99537.10
2017-09-10T08:59:06.212Z,99524.92
2017-09-10T09:06:11.953Z,99527.69
2017-09-10T09:07:19.671Z,99529.05
2017-09-10T09:08:28.710Z,99534.93
2017-09-10T09:10:00.970Z,99533.95
2017-09-10T09:11:09.707Z,99526.32
2017-09-10T09:12:20.217Z,99531.79
2017-09-10T09:13:33.493Z,99527.97
2017-09-10T09:14:52.884Z,99533.26
2017-09-10T09:16:34.352Z,99529.74
2017-09-10T09:17:43.754Z,99537.55
2017-09-10T09:18:54.764Z,99533.00
2017-09-10T09:20:04.675Z,99536.75
2017-09-10T09:21:13.810Z,99537.78
2017-09-10T09:22:35.707Z,99529.33
2017-09-10T09:23:46.791Z,99537.09
2017-09-10T09:24:57.780Z,99533.89
2017-09-10T09:26:07.965Z,99533.89
2017-09-10T09:27:33.737Z,99528.28
2017-09-10T09:28:44.805Z,99527.50
2017-09-10T09:29:58.695Z,99528.97
2017-09-10T09:31:15.601Z,99534.08
2017-09-10T09:32:28.746Z,99519.17
2017-09-10T09:34:03.957Z,99519.22
2017-09-10T09:35:34.918Z,99522.23
2017-09-10T09:36:56.979Z,99520.56
2017-09-10T09:38:07.520Z,99524.05
2017-09-10T09:39:21.809Z,99526.46
2017-09-10T09:40:44.593Z,99529.19
2017-09-10T09:42:14.507Z,99530.81
2017-09-10T09:44:04.019Z,99527.70
2017-09-10T09:45:40.449Z,99526.60
2017-09-10T09:50:10.587Z,99524.33
2017-09-10T09:51:33.488Z,99527.05
2017-09-10T09:52:47.444Z,99524.77
2017-09-10T09:56:35.746Z,99518.81
2017-09-10T09:57:47.838Z,99515.70
2017-09-10T09:59:22.407Z,99518.44
2017-09-10T10:00:53.827Z,99515.57
2017-09-10T10:02:29.759Z,99522.83
2017-09-10T10:03:49.788Z,99524.09
2017-09-10T10:05:13.538Z,99519.16
2017-09-10T10:06:43.573Z,99516.66
2017-09-10T10:08:10.786Z,99515.77
2017-09-10T10:09:44.896Z,99520.56
2017-09-10T10:11:17.981Z,99517.12
2017-09-10T10:16:10.484Z,99510.92
2017-09-10T10:20:54.770Z,99511.70
2017-09-10T10:25:40.464Z,99504.03
2017-09-10T10:26:49.808Z,99507.46
2017-09-10T10:28:01.459Z,99503.61
2017-09-10T10:29:21.648Z,99508.02
2017-09-10T10:32:13.654Z,99503.83
2017-09-10T10:33:25.821Z,99506.06
2017-09-10T10:34:53.504Z,99497.21
2017-09-10T10:37:46.786Z,99494.26
2017-09-10T10:39:13.805Z,99493.98
2017-09-10T10:41:59.225Z,99488.84
2017-09-10T10:43:25.562Z,99491.58
2017-09-10T10:45:00.449Z,99486.59
2017-09-10T10:46:11.915Z,99487.75
2017-09-10T10:49:55.435Z,99499.50
2017-09-10T10:53:15.638Z,99501.27
2017-09-10T10:56:10.863Z,99504.98
2017-09-10T10:59:21.489Z,99504.63
2017-09-10T11:00:29.232Z,99500.38
2017-09-10T11:01:36.660Z,99501.58
2017-09-10T11:03:14.769Z,99504.14
2017-09-10T11:04:33.612Z,99502.25
2017-09-10T11:05:48.646Z,99509.36
2017-09-10T11:07:03.555Z,99503.75
2017-09-10T11:08:24.585Z,99505.93
2017-09-10T11:09:42.348Z,99511.88
2017-09-10T11:11:20.312Z,99508.55
2017-09-10T11:12:32.449Z,99512.66
2017-09-10T11:13:54.785Z,99508.52
2017-09-10T11:15:11.715Z,99498.70
2017-09-10T11:16:41.195Z,99500.04
2017-09-10T11:17:59.633Z,99502.02
2017-09-10T11:19:40.679Z,99505.72
2017-09-10T11:20:52.537Z,99506.63
2017-09-10T11:22:05.593Z,99501.89
2017-09-10T11:23:13.602Z,99507.84
2017-09-10T11:24:22.314Z,99497.58
2017-09-10T11:25:32.693Z,99505.16
2017-09-10T11:28:30.323Z,99509.91
2017-09-10T11:30:00.547Z,99518.71
2017-09-10T11:31:31.223Z,99515.59
2017-09-10T11:32:39.497Z,99513.62
2017-09-10T11:34:08.610Z,99512.13
2017-09-10T11:35:42.404Z,99507.73
2017-09-10T11:37:18.671Z,99503.73
2017-09-10T11:38:50.119Z,99508.02
2017-09-10T11:40:19.392Z,99508.84
2017-09-10T11:41:37.230Z,99516.52
2017-09-10T11:43:09.639Z,99516.41
2017-09-10T11:44:19.395Z,99516.84
2017-09-10T11:45:37.415Z,99513.78
2017-09-10T11:46:56.075Z,99512.56
2017-09-10T11:48:05.008Z,99509.77
2017-09-10T11:49:38.378Z,99516.52
2017-09-10T11:50:49.493Z,99509.84
2017-09-10T11:52:11.775Z,99512.20
2017-09-10T11:53:22.344Z,99503.17
2017-09-10T11:54:41.000Z,99507.00
2017-09-10T11:55:56.650Z,99501.00
2017-09-10T11:57:09.485Z,99502.42
2017-09-10T11:58:22.753Z,99513.43
2017-09-10T12:01:27.373Z,99499.92
2017-09-10T12:02:59.147Z,99503.64
2017-09-10T12:05:41.397Z,99492.63
2017-09-10T12:07:16.526Z,99498.03
2017-09-10T12:08:52.738Z,99487.44
2017-09-10T12:10:30.653Z,99485.91
2017-09-10T12:15:11.323Z,99493.66
2017-09-10T12:16:34.578Z,99490.59
2017-09-10T12:18:05.107Z,99488.38
2017-09-10T12:19:17.707Z,99493.98
2017-09-10T12:22:25.337Z,99483.98
2017-09-10T12:24:03.440Z,99481.03
2017-09-10T12:25:16.218Z,99490.03
2017-09-10T12:26:25.191Z,99487.80
2017-09-10T12:27:35.216Z,99479.95
2017-09-10T12:28:58.296Z,99472.20
2017-09-10T12:30:29.290Z,99473.22
2017-09-10T12:35:24.254Z,99467.77
2017-09-10T12:36:38.604Z,99459.41
2017-09-10T12:38:27.881Z,99451.89
2017-09-10T12:41:17.351Z,99447.30
2017-09-10T12:42:29.937Z,99441.44
2017-09-10T12:43:39.215Z,99445.03
2017-09-10T12:44:55.476Z,99442.06
2017-09-10T12:46:12.658Z,99445.72
2017-09-10T12:47:39.951Z,99443.80
2017-09-10T12:49:13.080Z,99447.26
2017-09-10T12:52:38.692Z,99445.99
2017-09-10T12:53:47.882Z,99443.74
2017-09-10T12:55:17.284Z,99445.62
2017-09-10T12:56:33.399Z,99442.91
2017-09-10T12:58:13.276Z,99449.48
2017-09-10T13:05:47.445Z,99427.92
2017-09-10T13:07:20.307Z,99429.35
2017-09-10T13:08:31.547Z,99428.94
2017-09-10T13:09:58.182Z,99426.52
2017-09-10T13:11:28.307Z,99430.15
2017-09-10T13:12:49.188Z,99431.22
2017-09-10T13:14:13.387Z,99432.49
2017-09-10T13:16:59.192Z,99442.85
2017-09-10T13:18:29.554Z,99439.09
2017-09-10T13:19:40.475Z,99436.04
2017-09-10T13:21:26.149Z,99433.09
2017-09-10T13:22:53.979Z,99426.55
2017-09-10T13:26:39.407Z,99428.97
2017-09-10T13:28:04.197Z,99434.52
2017-09-10T13:29:27.530Z,99427.89
2017-09-10T13:31:05.516Z,99433.38
2017-09-10T13:32:15.356Z,99431.66
2017-09-10T13:33:56.211Z,99431.05
2017-09-10T13:35:13.237Z,99433.08
2017-09-10T13:38:36.513Z,99443.09
2017-09-10T13:40:30.210Z,99436.51
2017-09-10T13:41:42.346Z,99435.56
2017-09-10T13:48:24.464Z,99432.17
2017-09-10T13:51:34.318Z,99430.23
2017-09-10T13:52:58.139Z,99429.10
2017-09-10T13:54:30.999Z,99430.88
2017-09-10T13:56:15.115Z,99431.19
2017-09-10T13:57:30.360Z,99431.41
2017-09-10T13:58:42.368Z,99438.36
2017-09-10T14:00:15.423Z,99433.20
2017-09-10T14:01:28.505Z,99433.97
2017-09-10T14:03:02.014Z,99439.92
2017-09-10T14:04:17.919Z,99437.64
2017-09-10T14:05:55.800Z,99431.52
2017-09-10T14:07:22.195Z,99438.09
2017-09-10T14:08:44.988Z,99448.53
2017-09-10T14:13:41.989Z,99448.23
2017-09-10T14:14:52.611Z,99449.47
2017-09-10T14:16:46.178Z,99443.86
2017-09-10T14:19:36.323Z,99431.36
2017-09-10T14:20:46.420Z,99435.90
2017-09-10T14:22:09.116Z,99439.07
2017-09-10T14:24:57.756Z,99447.56
2017-09-10T14:26:33.109Z,99443.39
2017-09-10T14:27:45.224Z,99440.20
2017-09-10T14:31:53.230Z,99446.19
2017-09-10T14:33:03.224Z,99451.33
2017-09-10T14:34:14.565Z,99451.72
2017-09-10T14:35:31.155Z,99446.22
2017-09-10T14:36:51.166Z,99442.93
2017-09-10T14:38:11.482Z,99437.52
2017-09-10T14:39:51.932Z,99432.69
2017-09-10T14:41:07.784Z,99441.22
2017-09-10T14:42:32.265Z,99448.12
2017-09-10T14:43:45.209Z,99443.84
2017-09-10T14:44:58.264Z,99442.67
2017-09-10T14:46:14.372Z,99441.65
2017-09-10T14:47:27.217Z,99444.52
2017-09-10T14:54:44.209Z,99433.80
2017-09-10T14:56:00.821Z,99443.52
2017-09-10T14:57:12.055Z,99444.27
2017-09-10T15:02:03.336Z,99442.69
2017-09-10T15:03:28.078Z,99449.37
2017-09-10T15:05:08.033Z,99460.70
2017-09-10T15:11:07.193Z,99447.25
2017-09-10T15:12:52.817Z,99451.53
2017-09-10T15:14:13.041Z,99452.28
2017-09-10T15:19:24.040Z,99452.34
2017-09-10T15:20:33.083Z,99446.48
2017-09-10T15:21:41.229Z,99445.92
2017-09-10T15:24:31.018Z,99439.98
2017-09-10T15:25:46.082Z,99434.86
2017-09-10T15:27:00.882Z,99436.06
2017-09-10T15:29:00.998Z,99434.79
2017-09-10T15:30:31.938Z,99424.59
2017-09-10T15:31:40.962Z,99429.70
2017-09-10T15:32:59.896Z,99438.83
2017-09-10T15:36:54.954Z,99440.92
2017-09-10T15:38:23.934Z,99433.24
2017-09-10T15:39:33.008Z,99429.10
2017-09-10T15:41:03.479Z,99438.02
2017-09-10T15:42:33.211Z,99438.19
2017-09-10T15:44:08.178Z,99431.52
2017-09-10T15:45:39.900Z,99433.17
2017-09-10T15:47:27.947Z,99427.58
2017-09-10T15:48:47.204Z,99429.23
2017-09-10T15:50:15.970Z,99427.98
2017-09-10T15:51:59.052Z,99428.08
2017-09-10T15:53:11.177Z,99435.86
2017-09-10T15:54:42.884Z,99435.67
2017-09-10T15:56:03.662Z,99428.95
2017-09-10T15:57:27.100Z,99422.56
2017-09-10T15:58:45.605Z,99426.84
2017-09-10T16:02:15.080Z,99417.26
2017-09-10T16:03:28.229Z,99419.22
2017-09-10T16:05:07.068Z,99423.59
2017-09-10T16:06:30.045Z,99414.91
2017-09-10T16:10:15.886Z,99420.71
2017-09-10T16:11:54.799Z,99416.44
2017-09-10T16:13:26.997Z,99421.02
2017-09-10T16:14:43.971Z,99422.34
2017-09-10T16:16:20.953Z,99426.88
2017-09-10T16:17:35.324Z,99423.00
2017-09-10T16:21:06.876Z,99422.56
2017-09-10T16:24:21.626Z,99421.18